SIA33 KSFO-WSSS
Flight info
| Callsign | SIA33 |
|---|---|
| Flight time | N/A |
| Altitude | 34000 |
| Route | GNNRR3 GNNRR DCT ALCOA DCT 39N140W 40N150W 40N160W/N0498F360 35N170W 31N180E/N0486F380 28N170E 25N160E 21N150E/N0487F400 17N140E DCT ENDAX P515 TOKON M767 TODAM/N0482F430 M767 TOMAN KARTO2B/20R |
| Aircraft | A359/H-SDE2E3GHIJ3J4J5LM1ORWXY/LB1D1 |
Departure
| Time | N/A |
|---|---|
| Airport | San Francisco International Airport (KSFO) |
Arrival
| Time | 2026-05-07 14:21 |
|---|---|
| Airport | Singapore Changi Airport (WSSS) |
| Time | Latitude | Longitude | Altitude | Speed | Heading |
|---|---|---|---|---|---|
| 2026-05-07 13:49 | 1.95676 | 106.56011 | 42176 ft | 442 kts | 230° |
| 2026-05-07 13:49 | 1.93722 | 106.53593 | 41917 ft | 453 kts | 231° |
| 2026-05-07 13:49 | 1.91722 | 106.51063 | 41659 ft | 464 kts | 232° |
| 2026-05-07 13:50 | 1.89723 | 106.48493 | 41418 ft | 474 kts | 232° |
| 2026-05-07 13:50 | 1.87718 | 106.45886 | 41160 ft | 484 kts | 232° |
| 2026-05-07 13:50 | 1.85662 | 106.43201 | 40898 ft | 487 kts | 232° |
| 2026-05-07 13:50 | 1.83600 | 106.40503 | 40636 ft | 490 kts | 232° |
| 2026-05-07 13:51 | 1.81530 | 106.37795 | 40394 ft | 492 kts | 232° |
| 2026-05-07 13:51 | 1.79447 | 106.35073 | 40161 ft | 493 kts | 232° |
| 2026-05-07 13:51 | 1.77356 | 106.32344 | 39911 ft | 494 kts | 232° |
| 2026-05-07 13:51 | 1.75265 | 106.29615 | 39684 ft | 495 kts | 232° |
| 2026-05-07 13:52 | 1.73165 | 106.26876 | 39439 ft | 496 kts | 232° |
| 2026-05-07 13:52 | 1.71063 | 106.24136 | 39199 ft | 497 kts | 232° |
| 2026-05-07 13:52 | 1.68960 | 106.21394 | 38978 ft | 498 kts | 232° |
| 2026-05-07 13:52 | 1.67017 | 106.18862 | 38764 ft | 499 kts | 232° |
| 2026-05-07 13:53 | 1.66249 | 106.17860 | 38704 ft | 500 kts | 232° |
| 2026-05-07 13:53 | 1.64521 | 106.15613 | 38496 ft | 501 kts | 232° |
| 2026-05-07 13:53 | 1.62397 | 106.12843 | 38231 ft | 502 kts | 232° |
| 2026-05-07 13:53 | 1.60273 | 106.10071 | 37971 ft | 502 kts | 232° |
| 2026-05-07 13:54 | 1.58142 | 106.07291 | 37721 ft | 503 kts | 232° |
| 2026-05-07 13:54 | 1.56012 | 106.04512 | 37456 ft | 504 kts | 232° |
| 2026-05-07 13:54 | 1.53880 | 106.01731 | 37201 ft | 505 kts | 232° |
| 2026-05-07 13:54 | 1.51747 | 105.98949 | 36957 ft | 505 kts | 232° |
| 2026-05-07 13:55 | 1.49604 | 105.96154 | 36708 ft | 506 kts | 232° |
| 2026-05-07 13:55 | 1.47465 | 105.93366 | 36463 ft | 506 kts | 232° |
| 2026-05-07 13:55 | 1.45317 | 105.90565 | 36220 ft | 507 kts | 232° |
| 2026-05-07 13:55 | 1.43174 | 105.87772 | 35975 ft | 507 kts | 232° |
| 2026-05-07 13:56 | 1.41036 | 105.84985 | 35368 ft | 504 kts | 232° |
| 2026-05-07 13:56 | 1.38899 | 105.82199 | 34633 ft | 505 kts | 232° |
| 2026-05-07 13:56 | 1.36752 | 105.79400 | 33768 ft | 508 kts | 232° |
| 2026-05-07 13:56 | 1.34592 | 105.76591 | 32831 ft | 512 kts | 232° |
| 2026-05-07 13:57 | 1.32416 | 105.73747 | 32210 ft | 517 kts | 232° |
| 2026-05-07 13:57 | 1.30226 | 105.70881 | 31926 ft | 522 kts | 232° |
| 2026-05-07 13:57 | 1.28019 | 105.67995 | 31853 ft | 524 kts | 232° |
| 2026-05-07 13:58 | 1.23592 | 105.62209 | 31851 ft | 524 kts | 232° |
| 2026-05-07 13:58 | 1.21428 | 105.59332 | 31465 ft | 515 kts | 234° |
| 2026-05-07 13:58 | 1.19686 | 105.56199 | 30473 ft | 518 kts | 248° |
| 2026-05-07 13:58 | 1.18745 | 105.52713 | 29263 ft | 525 kts | 263° |
| 2026-05-07 13:59 | 1.18565 | 105.49066 | 28152 ft | 526 kts | 270° |
| 2026-05-07 13:59 | 1.18564 | 105.45419 | 27055 ft | 515 kts | 270° |
| 2026-05-07 13:59 | 1.18542 | 105.41853 | 25696 ft | 511 kts | 270° |
| 2026-05-07 13:59 | 1.18494 | 105.38369 | 24354 ft | 505 kts | 269° |
| 2026-05-07 14:00 | 1.18428 | 105.34887 | 23075 ft | 497 kts | 269° |
| 2026-05-07 14:00 | 1.18353 | 105.31471 | 21697 ft | 486 kts | 269° |
| 2026-05-07 14:00 | 1.18275 | 105.28174 | 21251 ft | 461 kts | 269° |
| 2026-05-07 14:00 | 1.18198 | 105.25043 | 21107 ft | 443 kts | 269° |
| 2026-05-07 14:01 | 1.18124 | 105.22046 | 20942 ft | 415 kts | 269° |
| 2026-05-07 14:01 | 1.18054 | 105.19270 | 20756 ft | 387 kts | 269° |
| 2026-05-07 14:01 | 1.17988 | 105.16669 | 20592 ft | 365 kts | 269° |
| 2026-05-07 14:01 | 1.17945 | 105.14968 | 20480 ft | 358 kts | 269° |
| 2026-05-07 14:02 | 1.17862 | 105.11721 | 20273 ft | 347 kts | 269° |
| 2026-05-07 14:02 | 1.17821 | 105.10097 | 20020 ft | 347 kts | 269° |
| 2026-05-07 14:02 | 1.17764 | 105.07729 | 19706 ft | 344 kts | 269° |
| 2026-05-07 14:02 | 1.17716 | 105.05339 | 19338 ft | 344 kts | 269° |
| 2026-05-07 14:03 | 1.17668 | 105.02916 | 18950 ft | 344 kts | 269° |
| 2026-05-07 14:03 | 1.17619 | 105.00560 | 18570 ft | 345 kts | 269° |
| 2026-05-07 14:03 | 1.17569 | 104.98160 | 18175 ft | 345 kts | 269° |
| 2026-05-07 14:03 | 1.17519 | 104.95757 | 17747 ft | 346 kts | 269° |
| 2026-05-07 14:04 | 1.17468 | 104.93361 | 17356 ft | 344 kts | 269° |
| 2026-05-07 14:04 | 1.17417 | 104.91014 | 17176 ft | 326 kts | 269° |
| 2026-05-07 14:04 | 1.17370 | 104.88827 | 17033 ft | 305 kts | 269° |
| 2026-05-07 14:04 | 1.17325 | 104.86727 | 16900 ft | 297 kts | 269° |
| 2026-05-07 14:05 | 1.17336 | 104.84679 | 16753 ft | 291 kts | 276° |
| 2026-05-07 14:05 | 1.17806 | 104.82662 | 16760 ft | 314 kts | 292° |
| 2026-05-07 14:05 | 1.18726 | 104.80614 | 16710 ft | 322 kts | 298° |
| 2026-05-07 14:05 | 1.19741 | 104.78614 | 16164 ft | 326 kts | 299° |
| 2026-05-07 14:06 | 1.20807 | 104.76580 | 15494 ft | 333 kts | 299° |
| 2026-05-07 14:06 | 1.21888 | 104.74531 | 14919 ft | 332 kts | 299° |
| 2026-05-07 14:06 | 1.22965 | 104.72495 | 14262 ft | 331 kts | 299° |
| 2026-05-07 14:06 | 1.24035 | 104.70473 | 13562 ft | 327 kts | 299° |
| 2026-05-07 14:07 | 1.25094 | 104.68473 | 12725 ft | 324 kts | 299° |
| 2026-05-07 14:07 | 1.26140 | 104.66500 | 11963 ft | 319 kts | 298° |
| 2026-05-07 14:07 | 1.27164 | 104.64566 | 11749 ft | 314 kts | 298° |
| 2026-05-07 14:07 | 1.28185 | 104.62642 | 11611 ft | 313 kts | 298° |
| 2026-05-07 14:08 | 1.29198 | 104.60730 | 11467 ft | 311 kts | 298° |
| 2026-05-07 14:08 | 1.30210 | 104.58822 | 11351 ft | 310 kts | 298° |
| 2026-05-07 14:08 | 1.31206 | 104.56942 | 11197 ft | 309 kts | 298° |
| 2026-05-07 14:08 | 1.32227 | 104.55016 | 11074 ft | 309 kts | 298° |
| 2026-05-07 14:09 | 1.33215 | 104.53151 | 10928 ft | 308 kts | 298° |
| 2026-05-07 14:09 | 1.34217 | 104.51260 | 10697 ft | 306 kts | 298° |
| 2026-05-07 14:09 | 1.35208 | 104.49391 | 10229 ft | 304 kts | 298° |
| 2026-05-07 14:09 | 1.36194 | 104.47531 | 9826 ft | 303 kts | 298° |
| 2026-05-07 14:10 | 1.37179 | 104.45671 | 9431 ft | 301 kts | 298° |
| 2026-05-07 14:10 | 1.38157 | 104.43827 | 9046 ft | 301 kts | 298° |
| 2026-05-07 14:10 | 1.39129 | 104.41992 | 8686 ft | 296 kts | 298° |
| 2026-05-07 14:10 | 1.40092 | 104.40175 | 8288 ft | 293 kts | 298° |
| 2026-05-07 14:11 | 1.41048 | 104.38371 | 7943 ft | 295 kts | 297° |
| 2026-05-07 14:11 | 1.42006 | 104.36562 | 7556 ft | 292 kts | 297° |
| 2026-05-07 14:11 | 1.42953 | 104.34776 | 7160 ft | 290 kts | 297° |
| 2026-05-07 14:11 | 1.43898 | 104.32993 | 6803 ft | 289 kts | 297° |
| 2026-05-07 14:12 | 1.44830 | 104.31231 | 6437 ft | 285 kts | 297° |
| 2026-05-07 14:12 | 1.45730 | 104.29533 | 6091 ft | 268 kts | 297° |
| 2026-05-07 14:12 | 1.46565 | 104.27957 | 5787 ft | 251 kts | 297° |
| 2026-05-07 14:12 | 1.47390 | 104.26401 | 5665 ft | 250 kts | 297° |
| 2026-05-07 14:13 | 1.48192 | 104.24914 | 5506 ft | 234 kts | 300° |
| 2026-05-07 14:13 | 1.48974 | 104.23576 | 5393 ft | 220 kts | 300° |
| 2026-05-07 14:13 | 1.49743 | 104.22283 | 5287 ft | 213 kts | 300° |
| 2026-05-07 14:13 | 1.50508 | 104.21013 | 5175 ft | 213 kts | 300° |
| 2026-05-07 14:14 | 1.51266 | 104.19744 | 5050 ft | 213 kts | 300° |
| 2026-05-07 14:14 | 1.52027 | 104.18469 | 4750 ft | 213 kts | 300° |
| 2026-05-07 14:14 | 1.52783 | 104.17204 | 4444 ft | 211 kts | 300° |
| 2026-05-07 14:14 | 1.53535 | 104.15947 | 4156 ft | 210 kts | 300° |
| 2026-05-07 14:15 | 1.54285 | 104.14698 | 3871 ft | 209 kts | 300° |
| 2026-05-07 14:15 | 1.55030 | 104.13457 | 3588 ft | 208 kts | 300° |
| 2026-05-07 14:15 | 1.55774 | 104.12220 | 3300 ft | 207 kts | 300° |
| 2026-05-07 14:15 | 1.56512 | 104.10992 | 3007 ft | 206 kts | 300° |
| 2026-05-07 14:16 | 1.56994 | 104.09668 | 2712 ft | 204 kts | 273° |
| 2026-05-07 14:16 | 1.56666 | 104.08328 | 2520 ft | 200 kts | 239° |
| 2026-05-07 14:16 | 1.55865 | 104.07188 | 2483 ft | 200 kts | 231° |
| 2026-05-07 14:16 | 1.54827 | 104.06271 | 2487 ft | 200 kts | 211° |
| 2026-05-07 14:17 | 1.53576 | 104.05668 | 2500 ft | 199 kts | 202° |
| 2026-05-07 14:17 | 1.52299 | 104.05133 | 2502 ft | 196 kts | 202° |
| 2026-05-07 14:17 | 1.51067 | 104.04610 | 2500 ft | 190 kts | 202° |
| 2026-05-07 14:17 | 1.49852 | 104.04091 | 2492 ft | 190 kts | 203° |
| 2026-05-07 14:18 | 1.48659 | 104.03578 | 2306 ft | 188 kts | 203° |
| 2026-05-07 14:18 | 1.47452 | 104.03063 | 2071 ft | 183 kts | 202° |
| 2026-05-07 14:18 | 1.46297 | 104.02575 | 1818 ft | 175 kts | 202° |
| 2026-05-07 14:18 | 1.45443 | 104.02213 | 1654 ft | 166 kts | 202° |
| 2026-05-07 14:19 | 1.44410 | 104.01774 | 1431 ft | 156 kts | 202° |
| 2026-05-07 14:19 | 1.43444 | 104.01364 | 1242 ft | 146 kts | 202° |
| 2026-05-07 14:19 | 1.42540 | 104.00981 | 1054 ft | 135 kts | 202° |
| 2026-05-07 14:19 | 1.41701 | 104.00624 | 908 ft | 129 kts | 202° |
| 2026-05-07 14:20 | 1.40868 | 104.00269 | 719 ft | 129 kts | 202° |
| 2026-05-07 14:20 | 1.40046 | 103.99921 | 582 ft | 129 kts | 202° |
| 2026-05-07 14:20 | 1.39211 | 103.99576 | 402 ft | 130 kts | 203° |
| 2026-05-07 14:20 | 1.38378 | 103.99219 | 236 ft | 131 kts | 202° |
| 2026-05-07 14:21 | 1.37545 | 103.98865 | 65 ft | 130 kts | 202° |
| 2026-05-07 14:21 | 1.36752 | 103.98531 | 39 ft | 117 kts | 202° |
| 2026-05-07 14:21 | 1.36223 | 103.98306 | 37 ft | 53 kts | 203° |
| 2026-05-07 14:21 | 1.35962 | 103.98195 | 37 ft | 39 kts | 203° |
| 2026-05-07 14:22 | 1.35753 | 103.98120 | 37 ft | 15 kts | 189° |
| 2026-05-07 14:22 | 1.35676 | 103.98111 | 37 ft | 13 kts | 184° |
| 2026-05-07 14:22 | 1.35569 | 103.98118 | 37 ft | 17 kts | 173° |
| 2026-05-07 14:22 | 1.35445 | 103.98132 | 37 ft | 19 kts | 173° |
| 2026-05-07 14:23 | 1.35344 | 103.98147 | 37 ft | 11 kts | 158° |
| 2026-05-07 14:23 | 1.35289 | 103.98191 | 37 ft | 10 kts | 160° |
| 2026-05-07 14:23 | 1.35222 | 103.98177 | 37 ft | 11 kts | 202° |
| 2026-05-07 14:23 | 1.35160 | 103.98150 | 37 ft | 11 kts | 203° |
| 2026-05-07 14:24 | 1.35122 | 103.98147 | 37 ft | 1 kts | 142° |
| 2026-05-07 14:24 | 1.35114 | 103.98175 | 37 ft | 7 kts | 86° |
| 2026-05-07 14:24 | 1.35139 | 103.98230 | 37 ft | 10 kts | 49° |
| 2026-05-07 14:24 | 1.35162 | 103.98247 | 37 ft | 2 kts | 32° |
| 2026-05-07 14:25 | 1.35173 | 103.98253 | 37 ft | 0 kts | 27° |
| 2026-05-07 14:26 | 1.35174 | 103.98253 | 37 ft | 1 kts | 29° |
| 2026-05-07 14:27 | 1.35182 | 103.98274 | 37 ft | 5 kts | 80° |
| 2026-05-07 14:27 | 1.35173 | 103.98314 | 37 ft | 7 kts | 112° |
| 2026-05-07 14:27 | 1.35161 | 103.98342 | 37 ft | 1 kts | 113° |
| 2026-05-07 14:27 | 1.35160 | 103.98344 | 37 ft | 1 kts | 113° |
| 2026-05-07 14:28 | 1.35159 | 103.98347 | 37 ft | 0 kts | 113° |